createdAt,value
2023-01-05T00:01:52.386Z,1.00
2023-01-05T00:04:20.498Z,1.00
2023-01-05T00:06:48.565Z,2.00
2023-01-05T00:09:17.825Z,1.40
2023-01-05T00:12:03.563Z,3.00
2023-01-05T00:14:51.120Z,0.60
2023-01-05T00:17:40.321Z,1.00
2023-01-05T00:20:28.881Z,1.00
2023-01-05T00:22:56.938Z,0.75
2023-01-05T00:25:26.243Z,2.60
2023-01-05T00:27:54.641Z,0.60
2023-01-05T00:30:25.035Z,1.40
2023-01-05T00:32:53.116Z,2.60
2023-01-05T00:35:21.220Z,3.00
2023-01-05T00:37:50.022Z,2.00
2023-01-05T00:40:19.076Z,2.00
2023-01-05T00:42:47.290Z,4.00
2023-01-05T00:45:16.221Z,0.60
2023-01-05T00:47:46.081Z,2.00
2023-01-05T00:50:15.402Z,0.00
2023-01-05T00:52:43.421Z,1.00
2023-01-05T00:55:11.472Z,1.50
2023-01-05T00:57:39.562Z,2.00
2023-01-05T01:00:09.383Z,1.00
2023-01-05T01:02:37.376Z,1.00
2023-01-05T01:05:08.489Z,3.00
2023-01-05T01:07:36.532Z,1.00
2023-01-05T01:10:06.989Z,2.00
2023-01-05T01:12:35.028Z,1.00
2023-01-05T01:15:03.110Z,4.00
2023-01-05T01:17:32.430Z,3.00
2023-01-05T01:20:00.480Z,1.00
2023-01-05T01:22:29.893Z,3.00
2023-01-05T01:24:57.923Z,1.00
2023-01-05T01:27:25.952Z,1.00
2023-01-05T01:29:53.968Z,2.00
2023-01-05T01:32:22.047Z,0.00
2023-01-05T01:34:50.075Z,2.60
2023-01-05T01:37:18.848Z,3.00
2023-01-05T01:39:52.347Z,2.00
2023-01-05T01:42:20.917Z,2.00
2023-01-05T01:44:55.148Z,3.00
2023-01-05T01:47:32.164Z,2.00
2023-01-05T01:50:00.970Z,1.00
2023-01-05T01:52:29.174Z,1.00
2023-01-05T01:54:59.103Z,3.00
2023-01-05T01:57:27.573Z,4.00
2023-01-05T01:59:55.659Z,2.60
2023-01-05T02:02:23.812Z,2.00
2023-01-05T02:04:52.790Z,2.20
2023-01-05T02:07:21.264Z,3.60
2023-01-05T02:09:49.291Z,6.80
2023-01-05T02:12:27.879Z,1.20
2023-01-05T02:15:00.966Z,1.00
2023-01-05T02:17:32.725Z,1.00
2023-01-05T02:20:22.400Z,3.00
2023-01-05T02:23:16.463Z,0.50
2023-01-05T02:26:05.513Z,1.00
2023-01-05T02:28:44.577Z,6.00
2023-01-05T02:31:16.258Z,1.00
2023-01-05T02:34:00.978Z,2.00
2023-01-05T02:36:30.415Z,2.60
2023-01-05T02:39:06.085Z,1.20
2023-01-05T02:41:36.153Z,2.75
2023-01-05T02:44:04.967Z,1.25
2023-01-05T02:46:34.606Z,2.00
2023-01-05T02:49:02.966Z,1.00
2023-01-05T02:51:32.786Z,2.00
2023-01-05T02:54:02.970Z,1.00
2023-01-05T02:56:32.873Z,2.00
2023-01-05T02:59:03.322Z,4.40
2023-01-05T03:01:34.506Z,3.00
2023-01-05T03:04:04.398Z,2.40
2023-01-05T03:06:34.227Z,1.00
2023-01-05T03:09:03.266Z,1.00
2023-01-05T03:11:53.071Z,2.00
2023-01-05T03:14:24.774Z,0.50
2023-01-05T03:16:55.465Z,1.00
2023-01-05T03:19:40.484Z,0.80
2023-01-05T03:22:33.927Z,0.00
2023-01-05T03:25:22.080Z,2.00
2023-01-05T03:28:07.562Z,2.00
2023-01-05T03:30:56.473Z,1.00
2023-01-05T03:33:48.499Z,3.00
2023-01-05T03:36:17.625Z,2.00
2023-01-05T03:38:46.854Z,2.00
2023-01-05T03:41:16.537Z,2.00
2023-01-05T03:43:45.798Z,0.00
2023-01-05T03:46:16.071Z,5.40
2023-01-05T03:48:46.734Z,1.67
2023-01-05T03:51:14.866Z,1.00
2023-01-05T03:53:43.036Z,1.00
2023-01-05T03:56:11.321Z,0.80
2023-01-05T03:58:39.775Z,2.00
2023-01-05T04:01:08.631Z,1.00
2023-01-05T04:03:37.214Z,1.00
2023-01-05T04:06:09.187Z,0.00
2023-01-05T04:08:39.071Z,1.00
2023-01-05T04:11:14.978Z,0.40
2023-01-05T04:13:46.439Z,2.40
2023-01-05T04:16:14.591Z,3.00
2023-01-05T04:18:43.637Z,3.60
2023-01-05T04:21:13.214Z,2.40
2023-01-05T04:23:41.350Z,1.00
2023-01-05T04:26:10.009Z,1.00
2023-01-05T04:28:39.025Z,1.60
2023-01-05T04:31:07.160Z,3.40
2023-01-05T04:33:36.439Z,1.50
2023-01-05T04:36:05.109Z,0.00
2023-01-05T04:38:34.927Z,2.25
2023-01-05T04:41:03.218Z,0.60
2023-01-05T04:43:31.446Z,2.00
2023-01-05T04:46:01.983Z,0.40
2023-01-05T04:48:31.975Z,1.00
2023-01-05T04:51:00.795Z,1.40
2023-01-05T04:53:34.583Z,2.00
2023-01-05T04:56:04.816Z,1.00
2023-01-05T04:58:38.853Z,1.00
2023-01-05T05:01:07.216Z,2.60
2023-01-05T05:03:36.813Z,1.00
2023-01-05T05:06:07.787Z,3.00
2023-01-05T05:08:37.162Z,0.00
2023-01-05T05:11:06.365Z,3.20
2023-01-05T05:13:37.614Z,5.00
2023-01-05T05:16:06.219Z,0.00
2023-01-05T05:18:35.141Z,2.25
2023-01-05T05:21:04.987Z,0.00
2023-01-05T05:23:38.325Z,1.00
2023-01-05T05:26:06.647Z,3.50
2023-01-05T05:28:35.825Z,1.00
2023-01-05T05:31:03.958Z,0.00
2023-01-05T05:33:32.046Z,1.00
2023-01-05T05:36:00.107Z,1.00
2023-01-05T05:38:28.164Z,2.50
2023-01-05T05:40:57.546Z,2.00
2023-01-05T05:43:25.613Z,0.00
2023-01-05T05:45:53.667Z,1.00
2023-01-05T05:48:21.706Z,0.00
2023-01-05T05:50:49.734Z,1.00
2023-01-05T05:53:17.815Z,1.00
2023-01-05T05:55:49.176Z,0.00
2023-01-05T05:58:18.639Z,1.20
2023-01-05T06:00:46.738Z,1.00
2023-01-05T06:03:14.913Z,3.20
2023-01-05T06:05:43.025Z,2.00
2023-01-05T06:08:11.236Z,0.00
2023-01-05T06:10:39.276Z,4.00
2023-01-05T06:13:07.460Z,1.00
2023-01-05T06:15:36.888Z,2.00
2023-01-05T06:18:05.114Z,0.60
2023-01-05T06:20:33.270Z,0.00
2023-01-05T06:23:01.319Z,4.00
2023-01-05T06:25:29.380Z,2.00
2023-01-05T06:27:57.418Z,0.00
2023-01-05T06:30:25.451Z,2.00
2023-01-05T06:32:54.863Z,4.00
2023-01-05T06:35:22.933Z,0.00
2023-01-05T06:37:50.982Z,0.40
2023-01-05T06:40:19.201Z,1.00
2023-01-05T06:42:47.291Z,0.00
2023-01-05T06:45:16.072Z,3.00
2023-01-05T06:47:44.186Z,0.00
2023-01-05T06:50:13.586Z,0.33
2023-01-05T06:52:41.672Z,0.00
2023-01-05T06:55:10.488Z,0.80
2023-01-05T06:57:38.577Z,0.00
2023-01-05T07:00:07.552Z,2.00
2023-01-05T07:02:35.615Z,1.00
2023-01-05T07:05:03.669Z,0.00
2023-01-05T07:07:33.083Z,2.00
2023-01-05T07:10:01.317Z,0.40
2023-01-05T07:12:29.392Z,4.20
2023-01-05T07:14:58.005Z,0.00
2023-01-05T07:17:26.226Z,2.00
2023-01-05T07:19:54.268Z,1.33
2023-01-05T07:22:22.342Z,3.00
2023-01-05T07:24:51.731Z,0.00
2023-01-05T07:27:19.810Z,2.40
2023-01-05T07:29:47.911Z,2.00
2023-01-05T07:32:15.925Z,0.00
2023-01-05T07:34:51.328Z,5.50
2023-01-05T07:37:24.767Z,2.00
2023-01-05T07:39:54.529Z,1.60
2023-01-05T07:42:22.547Z,0.60
2023-01-05T07:44:52.335Z,0.00
2023-01-05T07:47:20.387Z,1.00
2023-01-05T07:49:48.441Z,0.00
2023-01-05T07:52:17.136Z,4.00
2023-01-05T07:54:45.383Z,0.00
2023-01-05T07:57:14.786Z,0.00
2023-01-05T07:59:42.835Z,2.00
2023-01-05T08:02:10.960Z,2.50
2023-01-05T08:04:39.922Z,2.00
2023-01-05T08:07:11.174Z,0.60
2023-01-05T08:09:56.897Z,3.80
2023-01-05T08:12:26.291Z,1.00
2023-01-05T08:14:54.409Z,0.20
2023-01-05T08:17:22.454Z,1.60
2023-01-05T08:19:50.523Z,0.00
2023-01-05T08:22:18.595Z,0.20
2023-01-05T08:24:46.651Z,0.40
2023-01-05T08:27:14.731Z,1.00
2023-01-05T08:29:44.150Z,3.00
2023-01-05T08:32:12.209Z,0.60
2023-01-05T08:34:40.331Z,2.00
2023-01-05T08:37:08.454Z,0.00
2023-01-05T08:39:37.059Z,2.00
2023-01-05T08:42:05.207Z,2.00
2023-01-05T08:44:33.246Z,0.00
2023-01-05T08:47:02.678Z,0.75
2023-01-05T08:49:30.747Z,2.60
2023-01-05T08:51:58.781Z,1.60
2023-01-05T08:54:26.861Z,0.00
2023-01-05T08:56:54.925Z,0.00
2023-01-05T08:59:24.068Z,1.50
2023-01-05T09:01:52.248Z,0.75
2023-01-05T09:04:21.860Z,2.00
2023-01-05T09:06:49.906Z,2.00
2023-01-05T09:09:17.967Z,2.60
2023-01-05T09:11:46.012Z,2.00
2023-01-05T09:14:15.556Z,2.00
2023-01-05T09:19:33.010Z,2.60
2023-01-05T09:22:01.064Z,2.00
2023-01-05T09:24:29.264Z,2.60
2023-01-05T09:26:57.550Z,0.60
2023-01-05T09:29:25.616Z,1.00
2023-01-05T09:31:53.672Z,1.00
2023-01-05T09:34:21.767Z,1.80
2023-01-05T09:36:51.199Z,1.60
2023-01-05T09:39:19.244Z,1.00
2023-01-05T09:41:48.575Z,2.60
2023-01-05T09:44:22.195Z,2.00
2023-01-05T09:46:50.509Z,3.00
2023-01-05T09:49:22.217Z,1.00
2023-01-05T09:51:51.948Z,3.20
2023-01-05T09:54:20.227Z,4.00
2023-01-05T09:59:38.213Z,5.00
2023-01-05T10:02:11.010Z,0.80
2023-01-05T10:04:39.207Z,1.00
2023-01-05T10:07:09.862Z,0.75
2023-01-05T10:09:39.496Z,1.60
2023-01-05T10:12:31.683Z,2.40
2023-01-05T10:15:02.104Z,1.00
2023-01-05T10:17:42.339Z,0.00
2023-01-05T10:20:16.650Z,1.80
2023-01-05T10:22:51.992Z,2.60
2023-01-05T10:25:22.483Z,2.20
2023-01-05T10:27:56.934Z,0.00
2023-01-05T10:30:26.342Z,1.00
2023-01-05T10:33:21.856Z,2.50
2023-01-05T10:36:01.774Z,2.00
2023-01-05T10:38:40.282Z,1.00
2023-01-05T10:41:11.695Z,0.00
2023-01-05T10:43:56.821Z,1.00
2023-01-05T10:46:39.969Z,2.00
2023-01-05T10:49:09.338Z,1.00
2023-01-05T10:51:37.544Z,1.25
2023-01-05T10:54:07.300Z,1.00
2023-01-05T10:56:35.351Z,1.00
2023-01-05T10:59:10.250Z,1.40
2023-01-05T11:01:38.512Z,0.80
2023-01-05T11:07:03.128Z,0.00
2023-01-05T11:09:32.542Z,5.00
2023-01-05T11:12:01.144Z,1.00
2023-01-05T11:14:30.047Z,2.00
2023-01-05T11:17:02.547Z,1.00
2023-01-05T11:19:31.957Z,1.00
2023-01-05T11:22:02.100Z,2.00
2023-01-05T11:24:33.199Z,5.00
2023-01-05T11:27:01.834Z,0.00
2023-01-05T11:29:30.401Z,1.00
2023-01-05T11:31:59.512Z,0.00
2023-01-05T11:34:42.023Z,0.00
2023-01-05T11:37:17.760Z,0.00
2023-01-05T11:39:51.322Z,0.00
2023-01-05T11:42:25.368Z,1.80
2023-01-05T11:44:55.236Z,1.00
2023-01-05T11:47:28.905Z,0.00
2023-01-05T11:50:06.941Z,0.00
2023-01-05T11:52:37.851Z,0.00
2023-01-05T11:55:27.810Z,0.00
2023-01-05T11:58:00.280Z,0.00
2023-01-05T12:00:29.854Z,0.00
2023-01-05T12:03:24.786Z,0.00
2023-01-05T12:05:53.534Z,0.00
2023-01-05T12:08:24.401Z,1.00
2023-01-05T12:11:04.546Z,0.00
2023-01-05T12:13:46.502Z,0.50
2023-01-05T12:16:21.780Z,0.00
2023-01-05T12:19:00.631Z,1.00
2023-01-05T12:21:29.300Z,1.00
2023-01-05T12:24:18.370Z,0.00
2023-01-05T12:26:51.161Z,2.00
2023-01-05T12:35:48.906Z,0.75
2023-01-05T12:38:38.666Z,0.00
2023-01-05T12:41:20.509Z,0.00
2023-01-05T12:43:56.870Z,0.00
2023-01-05T12:46:30.820Z,0.00
2023-01-05T12:49:00.222Z,0.80
2023-01-05T12:51:29.891Z,0.00
2023-01-05T12:53:59.656Z,1.00
2023-01-05T12:56:29.844Z,0.00
2023-01-05T12:59:09.790Z,0.00
2023-01-05T13:01:41.167Z,0.00
2023-01-05T13:04:15.475Z,0.00
2023-01-05T13:06:44.326Z,0.00
2023-01-05T13:09:14.453Z,1.00
2023-01-05T13:11:44.358Z,1.60
2023-01-05T13:14:16.928Z,3.00
2023-01-05T13:16:46.734Z,0.00
2023-01-05T13:19:19.008Z,2.00
2023-01-05T13:21:47.643Z,1.00
2023-01-05T13:24:22.701Z,0.00
2023-01-05T13:26:50.772Z,1.00
2023-01-05T13:29:24.079Z,0.00
2023-01-05T13:32:08.077Z,0.00
2023-01-05T13:34:47.317Z,0.00
2023-01-05T13:37:53.454Z,0.00
2023-01-05T13:40:35.353Z,0.20
2023-01-05T13:43:22.694Z,0.50
2023-01-05T13:46:22.843Z,1.00
2023-01-05T13:49:05.251Z,0.00
2023-01-05T13:51:48.085Z,2.00
2023-01-05T13:54:18.412Z,0.00
2023-01-05T13:56:47.309Z,2.00
2023-01-05T13:59:34.519Z,2.75
2023-01-05T14:02:05.198Z,0.00
2023-01-05T14:04:35.011Z,1.00
2023-01-05T14:07:03.996Z,2.00
2023-01-05T14:09:34.299Z,0.00
2023-01-05T14:12:41.143Z,1.00
2023-01-05T14:15:44.699Z,0.00
2023-01-05T14:18:14.239Z,1.00
2023-01-05T14:20:46.474Z,0.80
2023-01-05T14:23:53.527Z,0.00
2023-01-05T14:26:42.741Z,2.00
2023-01-05T14:29:10.730Z,1.80
2023-01-05T14:31:39.392Z,0.00
2023-01-05T14:34:14.542Z,2.20
2023-01-05T14:36:43.538Z,1.20
2023-01-05T14:39:23.977Z,0.00
2023-01-05T14:42:02.299Z,1.00
2023-01-05T14:44:32.875Z,3.67
2023-01-05T14:47:01.355Z,0.00
2023-01-05T14:49:34.396Z,1.00
2023-01-05T14:52:03.217Z,1.00
2023-01-05T14:55:21.792Z,2.00
2023-01-05T14:57:58.369Z,0.00
2023-01-05T15:00:46.119Z,2.60
2023-01-05T15:03:19.859Z,0.00
2023-01-05T15:05:57.802Z,4.80
2023-01-05T15:08:44.947Z,3.00
2023-01-05T15:11:25.156Z,0.67
2023-01-05T15:14:28.835Z,4.00
2023-01-05T15:17:22.870Z,0.00
2023-01-05T15:20:11.455Z,2.00
2023-01-05T15:22:50.391Z,0.00
2023-01-05T15:25:31.106Z,2.00
2023-01-05T15:28:08.157Z,2.00
2023-01-05T15:30:53.324Z,1.00
2023-01-05T15:33:27.982Z,2.00
2023-01-05T15:35:58.330Z,1.00
2023-01-05T15:38:29.554Z,0.00
2023-01-05T15:41:01.485Z,1.00
2023-01-05T15:43:29.505Z,3.00
2023-01-05T15:45:57.596Z,1.00
2023-01-05T15:48:29.000Z,1.50
2023-01-05T15:50:58.447Z,4.20
2023-01-05T15:53:29.504Z,1.00
2023-01-05T15:55:57.767Z,1.00
2023-01-05T15:58:27.209Z,1.00
2023-01-05T16:01:05.881Z,2.00
2023-01-05T16:03:35.179Z,3.00
2023-01-05T16:06:05.033Z,0.80
2023-01-05T16:08:36.060Z,0.00
2023-01-05T16:11:06.157Z,1.00
2023-01-05T16:13:35.259Z,1.00
2023-01-05T16:16:05.664Z,1.00
2023-01-05T16:18:35.891Z,1.50
2023-01-05T16:21:06.575Z,1.00
2023-01-05T16:23:37.689Z,3.00
2023-01-05T16:26:05.998Z,3.00
2023-01-05T16:28:34.019Z,1.00
2023-01-05T16:31:02.104Z,1.00
2023-01-05T16:33:34.961Z,2.00
2023-01-05T16:36:18.459Z,1.00
2023-01-05T16:38:47.918Z,1.00
2023-01-05T16:41:22.858Z,2.60
2023-01-05T16:43:52.876Z,0.40
2023-01-05T16:46:39.029Z,1.00
2023-01-05T16:49:56.978Z,1.25
2023-01-05T16:52:28.972Z,1.00
2023-01-05T16:55:27.673Z,1.00
2023-01-05T16:57:56.231Z,0.50
2023-01-05T17:00:35.485Z,1.00
2023-01-05T17:03:04.460Z,1.00
2023-01-05T17:05:33.633Z,1.50
2023-01-05T17:08:05.496Z,1.00
2023-01-05T17:10:34.991Z,1.00
2023-01-05T17:13:21.975Z,2.00
2023-01-05T17:15:51.197Z,1.00
2023-01-05T17:20:51.390Z,2.00
2023-01-05T17:23:22.405Z,1.00
2023-01-05T17:28:22.320Z,1.60
2023-01-05T17:30:50.533Z,1.00
2023-01-05T17:33:18.652Z,2.00
2023-01-05T17:38:16.177Z,3.00
2023-01-05T17:40:44.351Z,1.00
2023-01-05T17:43:13.742Z,1.00
2023-01-05T17:45:42.816Z,0.00
2023-01-05T17:50:39.802Z,1.00
2023-01-05T17:53:07.850Z,1.00
2023-01-05T17:55:35.987Z,1.00
2023-01-05T17:58:04.149Z,2.40
2023-01-05T18:00:35.099Z,1.00
2023-01-05T18:03:03.133Z,1.00
2023-01-05T18:05:31.850Z,1.00
2023-01-05T18:07:59.947Z,1.00
2023-01-05T18:10:29.438Z,2.00
2023-01-05T18:12:57.597Z,1.00
2023-01-05T18:18:01.434Z,1.00
2023-01-05T18:20:30.061Z,2.00
2023-01-05T18:22:58.324Z,2.00
2023-01-05T18:25:26.421Z,1.00
2023-01-05T18:27:54.475Z,2.75
2023-01-05T18:30:22.498Z,3.00
2023-01-05T18:32:50.606Z,2.00
2023-01-05T18:35:20.125Z,1.00
2023-01-05T18:37:48.181Z,4.00
2023-01-05T18:40:16.330Z,2.00
2023-01-05T18:42:44.443Z,2.80
2023-01-05T18:45:19.367Z,1.00
2023-01-05T18:47:48.023Z,0.00
2023-01-05T18:50:16.127Z,1.60
2023-01-05T18:52:46.645Z,3.00
2023-01-05T18:55:14.664Z,0.60
2023-01-05T18:57:42.743Z,2.00
2023-01-05T19:00:12.031Z,0.60
2023-01-05T19:02:41.043Z,3.00
2023-01-05T19:05:10.163Z,2.00
2023-01-05T19:07:39.830Z,2.25
2023-01-05T19:10:10.035Z,3.00
2023-01-05T19:12:38.095Z,5.20
2023-01-05T19:15:06.893Z,3.00
2023-01-05T19:17:35.065Z,3.40
2023-01-05T19:20:03.137Z,1.40
2023-01-05T19:22:31.266Z,2.00
2023-01-05T19:24:59.372Z,1.20
2023-01-05T19:27:29.100Z,3.00
2023-01-05T19:29:57.121Z,2.00
2023-01-05T19:32:25.221Z,1.50
2023-01-05T19:34:53.241Z,0.40
2023-01-05T19:37:21.426Z,0.60
2023-01-05T19:39:49.455Z,2.00
2023-01-05T19:42:17.604Z,2.00
2023-01-05T19:44:47.032Z,2.00
2023-01-05T19:47:15.084Z,2.00
2023-01-05T19:49:43.235Z,1.00
2023-01-05T19:52:11.975Z,1.00
2023-01-05T19:54:40.031Z,6.25
2023-01-05T19:57:08.092Z,1.75
2023-01-05T19:59:36.354Z,3.00
2023-01-05T20:02:06.477Z,4.00
2023-01-05T20:04:34.627Z,1.00
2023-01-05T20:07:04.284Z,1.00
2023-01-05T20:09:32.679Z,1.00
2023-01-05T20:12:13.337Z,1.00
2023-01-05T20:14:42.757Z,2.00
2023-01-05T20:17:12.418Z,1.00
2023-01-05T20:19:40.592Z,6.40
2023-01-05T20:22:11.933Z,1.00
2023-01-05T20:24:40.010Z,2.00
2023-01-05T20:27:09.603Z,2.00
2023-01-05T20:29:37.622Z,1.00
2023-01-05T20:32:07.760Z,1.00
2023-01-05T20:34:38.180Z,0.00
2023-01-05T20:37:07.402Z,2.00
2023-01-05T20:39:37.199Z,2.80
2023-01-05T20:42:05.613Z,0.00
2023-01-05T20:44:34.948Z,1.00
2023-01-05T20:47:03.943Z,0.20
2023-01-05T20:49:32.068Z,1.75
2023-01-05T20:52:01.494Z,2.00
2023-01-05T20:54:29.522Z,1.00
2023-01-05T20:56:57.589Z,1.40
2023-01-05T20:59:28.150Z,2.00
2023-01-05T21:01:56.677Z,2.25
2023-01-05T21:04:25.139Z,1.75
2023-01-05T21:06:54.313Z,1.00
2023-01-05T21:09:23.898Z,2.00
2023-01-05T21:11:52.100Z,1.00
2023-01-05T21:14:20.186Z,3.00
2023-01-05T21:16:49.614Z,2.25
2023-01-05T21:19:20.773Z,2.00
2023-01-05T21:21:49.489Z,0.00
2023-01-05T21:24:17.553Z,2.00
2023-01-05T21:26:46.944Z,1.00
2023-01-05T21:29:16.158Z,4.00
2023-01-05T21:31:44.280Z,1.40
2023-01-05T21:34:13.141Z,1.40
2023-01-05T21:36:43.385Z,3.00
2023-01-05T21:39:16.693Z,2.00
2023-01-05T21:42:03.312Z,3.00
2023-01-05T21:44:31.357Z,1.00
2023-01-05T21:46:59.471Z,2.00
2023-01-05T21:49:27.787Z,2.00
2023-01-05T21:52:13.613Z,1.00
2023-01-05T21:54:59.019Z,4.00
2023-01-05T21:57:28.422Z,3.40
2023-01-05T21:59:56.455Z,2.00
2023-01-05T22:02:24.512Z,2.00
2023-01-05T22:04:52.524Z,3.00
2023-01-05T22:07:20.602Z,4.00
2023-01-05T22:09:48.679Z,3.60
2023-01-05T22:12:16.718Z,4.80
2023-01-05T22:14:46.106Z,2.00
2023-01-05T22:17:14.148Z,2.00
2023-01-05T22:19:42.154Z,2.00
2023-01-05T22:22:10.236Z,1.00
2023-01-05T22:24:38.474Z,1.00
2023-01-05T22:27:06.522Z,3.00
2023-01-05T22:29:34.551Z,2.00
2023-01-05T22:32:04.102Z,6.20
2023-01-05T22:34:32.145Z,8.00
2023-01-05T22:37:00.237Z,5.80
2023-01-05T22:39:28.290Z,6.60
2023-01-05T22:41:56.341Z,5.00
2023-01-05T22:44:24.357Z,2.80
2023-01-05T22:46:52.399Z,6.00
2023-01-05T22:49:21.766Z,8.00
2023-01-05T22:51:49.807Z,7.25
2023-01-05T22:54:17.820Z,7.00
2023-01-05T22:56:45.863Z,15.25
2023-01-05T22:59:13.881Z,17.40
2023-01-05T23:01:43.658Z,13.60
2023-01-05T23:04:11.964Z,10.40
2023-01-05T23:06:41.437Z,13.80
2023-01-05T23:09:12.198Z,11.00
2023-01-05T23:11:41.145Z,20.00
2023-01-05T23:14:10.047Z,10.25
2023-01-05T23:16:38.296Z,14.75
2023-01-05T23:19:07.422Z,6.80
2023-01-05T23:21:35.517Z,11.00
2023-01-05T23:24:05.263Z,7.75
2023-01-05T23:26:33.300Z,13.50
2023-01-05T23:29:01.460Z,12.00
2023-01-05T23:31:29.519Z,12.00
2023-01-05T23:33:57.899Z,12.00
2023-01-05T23:36:25.970Z,6.00
2023-01-05T23:38:54.097Z,10.00
2023-01-05T23:41:23.501Z,6.00
2023-01-05T23:43:51.621Z,17.00
2023-01-05T23:46:21.077Z,5.25
2023-01-05T23:48:49.282Z,10.00
2023-01-05T23:51:18.248Z,15.50
2023-01-05T23:53:47.389Z,17.20
2023-01-05T23:56:16.393Z,15.00
2023-01-05T23:58:46.088Z,11.80
